Aphrodite — WDI9057 — position and weather

sailwx.info

Track history (hours):
 
Tides and Currents Weather Stations Pressure Air Temp Water Temp Dewpoint Dewpoint Depression Visibility Wind Speed Wind Dir Waves Ship Positions

Aphrodite

Owner: McMunn, Richard W, Mystic, CT. More information available from US FCC via Universal Licensing System and Coast Guard Vessel Documentation Center.

Last reported at 2018-Jan-20 16:34 UTC. Time now 2018-Feb-20 23:51 UTC.
Position N 14°27' W 061°03'.
Warning: this ship's position is 31 days out of date.

Length 15 m.

Type: Sailing vessel. MMSI: 367744820.

Date/timePositionNaut miles runAvg speedWind from/ knotsBaromVisibWave heightAir tempDewpointWater temp
2018-Jan-20 16:34N 14°27' W 061°03'0 5.1
2018-Jan-20 16:30N 14°27' W 061°02'3 5.5
2018-Jan-20 15:59N 14°27' W 060°59'3 5.6
2018-Jan-20 15:30N 14°27' W 060°57'3 6.0
2018-Jan-20 15:00N 14°26' W 060°54'  
2018-Jan-11 14:43N 14°26' W 060°53'0 0.4
2018-Jan-11 14:30N 14°26' W 060°53'3 5.1
2018-Jan-11 13:57N 14°27' W 060°56'2 4.9
2018-Jan-11 13:29N 14°27' W 060°59'3 4.9
2018-Jan-11 12:58N 14°27' W 061°01'  
Track history (hours):
 
Tides and Currents Weather Stations Pressure Air Temp Water Temp Dewpoint Dewpoint Depression Visibility Wind Speed Wind Dir Waves Ship Positions

Aphrodite

Owner: McMunn, Richard W, Mystic, CT. More information available from US FCC via Universal Licensing System and Coast Guard Vessel Documentation Center.

Last reported at 2018-Jan-20 16:34 UTC. Time now 2018-Feb-20 23:51 UTC.
Position N 14°27' W 061°03'.
Warning: this ship's position is 31 days out of date.

Length 15 m.

Type: Sailing vessel. MMSI: 367744820.

Date/timePositionNaut miles runAvg speedWind from/ knotsBaromVisibWave heightAir tempDewpointWater temp
2018-Jan-20 16:34N 14°27' W 061°03'0 5.1
2018-Jan-20 16:30N 14°27' W 061°02'3 5.5
2018-Jan-20 15:59N 14°27' W 060°59'3 5.6
2018-Jan-20 15:30N 14°27' W 060°57'3 6.0
2018-Jan-20 15:00N 14°26' W 060°54'  
2018-Jan-11 14:43N 14°26' W 060°53'0 0.4
2018-Jan-11 14:30N 14°26' W 060°53'3 5.1
2018-Jan-11 13:57N 14°27' W 060°56'2 4.9
2018-Jan-11 13:29N 14°27' W 060°59'3 4.9
2018-Jan-11 12:58N 14°27' W 061°01'  

Dump ship's entire track history